createdAt,value
2019-01-11T00:00:46.330Z,11.10
2019-01-11T00:01:53.108Z,11.60
2019-01-11T00:02:53.301Z,11.20
2019-01-11T00:03:45.602Z,11.10
2019-01-11T00:04:46.796Z,10.80
2019-01-11T00:05:45.648Z,10.50
2019-01-11T00:06:48.770Z,11.10
2019-01-11T00:07:46.223Z,11.30
2019-01-11T00:08:44.413Z,10.90
2019-01-11T00:09:44.298Z,11.80
2019-01-11T00:10:42.566Z,12.10
2019-01-11T00:11:42.610Z,11.20
2019-01-11T00:12:43.467Z,12.30
2019-01-11T00:13:43.889Z,12.70
2019-01-11T00:14:41.634Z,12.70
2019-01-11T00:15:42.144Z,12.00
2019-01-11T00:20:03.540Z,12.60
2019-01-11T00:23:28.604Z,13.70
2019-01-11T00:28:05.289Z,15.10
2019-01-11T00:29:05.056Z,15.00
2019-01-11T00:30:05.117Z,14.90
2019-01-11T00:31:05.228Z,15.20
2019-01-11T00:32:04.899Z,15.40
2019-01-11T00:33:16.007Z,15.60
2019-01-11T00:34:15.947Z,16.30
2019-01-11T00:36:45.299Z,16.40
2019-01-11T00:40:13.105Z,17.30
2019-01-11T00:41:24.959Z,17.50
2019-01-11T00:44:18.154Z,19.50
2019-01-11T00:47:01.166Z,19.30
2019-01-11T00:48:00.651Z,20.50
2019-01-11T00:49:00.854Z,20.20
2019-01-11T00:50:00.333Z,20.10
2019-01-11T00:51:00.921Z,20.70
2019-01-11T00:52:00.792Z,19.60
2019-01-11T00:53:00.153Z,20.60
2019-01-11T00:54:00.069Z,20.60
2019-01-11T00:54:59.947Z,20.00
2019-01-11T00:55:59.879Z,20.80
2019-01-11T00:56:59.867Z,18.30
2019-01-11T00:57:59.849Z,17.40
2019-01-11T00:59:10.099Z,16.60
2019-01-11T01:02:42.097Z,16.10
2019-01-11T01:03:58.691Z,14.80
2019-01-11T01:04:51.365Z,14.10
2019-01-11T01:06:00.291Z,14.10
2019-01-11T01:06:41.911Z,13.90
2019-01-11T01:09:57.233Z,15.20
2019-01-11T01:12:50.410Z,16.90
2019-01-11T01:13:50.725Z,16.70
2019-01-11T01:14:50.292Z,18.50
2019-01-11T01:15:50.148Z,18.10
2019-01-11T01:16:50.041Z,18.80
2019-01-11T01:17:50.760Z,19.40
2019-01-11T01:18:50.489Z,20.00
2019-01-11T01:19:49.686Z,20.30
2019-01-11T01:20:49.175Z,22.00
2019-01-11T01:21:49.320Z,22.00
2019-01-11T01:22:49.121Z,22.00
2019-01-11T01:23:49.027Z,23.30
2019-01-11T01:24:48.963Z,23.30
2019-01-11T01:25:48.973Z,23.90
2019-01-11T01:26:48.852Z,25.30
2019-01-11T01:27:48.812Z,24.90
2019-01-11T01:28:48.801Z,23.50
2019-01-11T01:29:48.721Z,23.40
2019-01-11T01:30:48.648Z,23.60
2019-01-11T01:31:48.625Z,24.00
2019-01-11T01:32:48.566Z,22.70
2019-01-11T01:33:48.556Z,22.60
2019-01-11T01:34:48.470Z,23.40
2019-01-11T01:35:48.459Z,24.70
2019-01-11T01:36:48.382Z,24.70
2019-01-11T01:37:48.333Z,25.60
2019-01-11T01:38:48.285Z,25.10
2019-01-11T01:39:48.519Z,25.70
2019-01-11T01:40:48.288Z,25.10
2019-01-11T01:41:48.411Z,27.80
2019-01-11T01:42:48.093Z,28.50
2019-01-11T01:43:48.052Z,28.30
2019-01-11T01:44:48.045Z,29.40
2019-01-11T01:45:47.942Z,29.90
2019-01-11T01:46:47.918Z,30.80
2019-01-11T01:47:47.877Z,32.40
2019-01-11T01:48:48.067Z,31.00
2019-01-11T01:49:47.768Z,30.90
2019-01-11T01:50:47.875Z,33.00
2019-01-11T01:51:48.044Z,34.00
2019-01-11T01:52:47.639Z,33.90
2019-01-11T01:53:47.583Z,34.30
2019-01-11T01:54:47.974Z,34.00
2019-01-11T01:55:47.482Z,34.70
2019-01-11T01:56:47.448Z,36.40
2019-01-11T01:57:47.467Z,37.60
2019-01-11T01:58:47.427Z,37.70
2019-01-11T01:59:47.292Z,38.20
2019-01-11T02:00:47.247Z,38.60
2019-01-11T02:01:47.184Z,39.50
2019-01-11T02:02:47.298Z,38.80
2019-01-11T02:03:47.115Z,40.70
2019-01-11T02:04:47.073Z,40.90
2019-01-11T02:05:47.244Z,42.20
2019-01-11T02:06:46.967Z,43.10
2019-01-11T02:07:47.151Z,43.40
2019-01-11T02:08:46.878Z,42.60
2019-01-11T02:09:47.011Z,43.90
2019-01-11T02:10:46.774Z,45.50
2019-01-11T02:11:46.752Z,46.30
2019-01-11T02:12:46.704Z,46.70
2019-01-11T02:13:46.630Z,47.00
2019-01-11T02:14:46.692Z,47.30
2019-01-11T02:15:46.548Z,46.60
2019-01-11T02:16:46.496Z,47.50
2019-01-11T02:17:46.492Z,46.40
2019-01-11T02:18:47.088Z,49.10
2019-01-11T02:19:46.377Z,50.70
2019-01-11T02:20:46.317Z,51.30
2019-01-11T02:21:46.522Z,50.40
2019-01-11T02:22:46.234Z,52.70
2019-01-11T02:23:46.214Z,54.10
2019-01-11T02:24:46.116Z,52.50
2019-01-11T02:25:46.343Z,53.20
2019-01-11T02:26:46.037Z,53.00
2019-01-11T02:27:45.985Z,56.40
2019-01-11T02:28:46.109Z,53.90
2019-01-11T02:29:45.951Z,55.90
2019-01-11T02:30:45.862Z,56.10
2019-01-11T02:31:56.719Z,55.70
2019-01-11T02:32:52.371Z,56.90
2019-01-11T02:33:45.793Z,55.70
2019-01-11T02:34:46.399Z,57.80
2019-01-11T02:35:46.230Z,57.30
2019-01-11T02:36:45.583Z,55.50
2019-01-11T02:37:45.528Z,54.40
2019-01-11T02:38:45.475Z,54.10
2019-01-11T02:39:45.430Z,53.80
2019-01-11T02:40:45.513Z,53.10
2019-01-11T02:41:45.343Z,54.30
2019-01-11T02:42:45.278Z,53.50
2019-01-11T02:43:45.335Z,59.90
2019-01-11T02:44:45.233Z,56.00
2019-01-11T02:45:45.186Z,54.10
2019-01-11T02:46:45.108Z,54.00
2019-01-11T02:47:45.173Z,55.20
2019-01-11T02:48:45.036Z,54.00
2019-01-11T02:49:44.959Z,58.20
2019-01-11T02:52:36.285Z,59.70
2019-01-11T02:53:35.780Z,59.10
2019-01-11T02:54:36.119Z,60.60
2019-01-11T02:57:27.825Z,60.90
2019-01-11T02:58:27.866Z,59.90
2019-01-11T02:59:27.728Z,60.50
2019-01-11T03:00:27.243Z,65.90
2019-01-11T03:01:26.922Z,62.20
2019-01-11T03:02:26.708Z,58.70
2019-01-11T03:03:27.618Z,59.10
2019-01-11T03:04:27.722Z,62.00
2019-01-11T03:05:27.081Z,58.00
2019-01-11T03:06:26.553Z,63.40
2019-01-11T03:07:26.437Z,62.20
2019-01-11T03:08:26.414Z,64.50
2019-01-11T03:09:26.348Z,59.70
2019-01-11T03:10:26.326Z,62.40
2019-01-11T03:11:26.305Z,65.90
2019-01-11T03:12:26.247Z,62.10
2019-01-11T03:13:26.183Z,64.70
2019-01-11T03:14:26.129Z,65.70
2019-01-11T03:15:26.101Z,60.70
2019-01-11T03:16:26.050Z,65.80
2019-01-11T03:17:26.014Z,63.80
2019-01-11T03:18:25.928Z,66.20
2019-01-11T03:19:25.914Z,66.00
2019-01-11T03:20:25.835Z,65.00
2019-01-11T03:21:25.821Z,64.00
2019-01-11T03:22:25.755Z,64.00
2019-01-11T03:23:25.736Z,70.80
2019-01-11T03:24:25.656Z,73.20
2019-01-11T03:25:25.615Z,69.10
2019-01-11T03:26:25.591Z,70.90
2019-01-11T03:27:25.521Z,70.70
2019-01-11T03:28:25.458Z,66.50
2019-01-11T03:29:25.408Z,72.30
2019-01-11T03:30:25.377Z,69.90
2019-01-11T03:31:25.327Z,68.70
2019-01-11T03:32:25.310Z,68.20
2019-01-11T03:33:25.243Z,71.60
2019-01-11T03:34:25.217Z,69.80
2019-01-11T03:35:25.146Z,71.30
2019-01-11T03:36:25.151Z,72.10
2019-01-11T03:37:25.077Z,80.30
2019-01-11T03:38:24.998Z,74.20
2019-01-11T03:39:24.954Z,79.40
2019-01-11T03:40:24.907Z,79.30
2019-01-11T03:41:24.876Z,74.80
2019-01-11T03:42:24.835Z,79.20
2019-01-11T03:43:24.770Z,77.50
2019-01-11T03:44:24.752Z,75.60
2019-01-11T03:45:24.672Z,79.20
2019-01-11T03:46:24.614Z,83.20
2019-01-11T03:47:24.616Z,83.40
2019-01-11T03:48:24.550Z,84.50
2019-01-11T03:49:24.498Z,84.60
2019-01-11T03:50:24.464Z,83.40
2019-01-11T03:51:24.403Z,78.40
2019-01-11T03:52:24.354Z,82.30
2019-01-11T03:53:24.339Z,97.00
2019-01-11T03:54:24.262Z,84.50
2019-01-11T03:55:24.212Z,91.50
2019-01-11T03:56:24.165Z,87.10
2019-01-11T03:57:24.127Z,90.70
2019-01-11T03:58:24.097Z,100.70
2019-01-11T03:59:24.069Z,88.30
2019-01-11T04:00:23.973Z,89.00
2019-01-11T04:01:23.928Z,85.30
2019-01-11T04:02:23.896Z,82.80
2019-01-11T04:03:23.887Z,84.10
2019-01-11T04:04:23.793Z,78.50
2019-01-11T04:05:23.756Z,81.90
2019-01-11T04:06:23.708Z,86.20
2019-01-11T04:07:23.691Z,85.20
2019-01-11T04:08:23.615Z,85.00
2019-01-11T04:09:23.612Z,83.30
2019-01-11T04:10:23.528Z,85.40
2019-01-11T04:11:23.468Z,86.20
2019-01-11T04:12:23.473Z,86.70
2019-01-11T04:13:30.348Z,87.60
2019-01-11T04:14:23.318Z,98.90
2019-01-11T04:15:23.298Z,91.00
2019-01-11T04:16:23.250Z,88.00
2019-01-11T04:17:23.185Z,80.30
2019-01-11T04:18:23.186Z,85.30
2019-01-11T04:19:23.088Z,79.30
2019-01-11T04:20:23.045Z,77.00
2019-01-11T04:21:23.022Z,81.90
2019-01-11T04:22:22.979Z,82.30
2019-01-11T04:23:22.971Z,78.00
2019-01-11T04:24:22.886Z,81.20
2019-01-11T04:25:23.498Z,80.10
2019-01-11T04:26:22.794Z,84.50
2019-01-11T04:27:22.730Z,78.40
2019-01-11T04:28:22.724Z,88.50
2019-01-11T04:29:22.657Z,87.70
2019-01-11T04:30:22.605Z,94.50
2019-01-11T04:31:22.554Z,90.90
2019-01-11T04:32:22.518Z,89.00
2019-01-11T04:33:22.431Z,90.70
2019-01-11T04:34:22.426Z,87.50
2019-01-11T04:35:22.356Z,92.60
2019-01-11T04:36:22.291Z,89.40
2019-01-11T04:37:22.267Z,82.20
2019-01-11T04:38:22.228Z,83.60
2019-01-11T04:39:22.243Z,79.80
2019-01-11T04:40:22.145Z,86.30
2019-01-11T04:41:22.093Z,86.90
2019-01-11T04:42:22.034Z,84.80
2019-01-11T04:43:21.990Z,91.70
2019-01-11T04:44:21.918Z,87.80
2019-01-11T04:45:21.910Z,82.50
2019-01-11T04:46:21.837Z,80.30
2019-01-11T04:47:21.807Z,82.70
2019-01-11T04:48:21.745Z,70.30
2019-01-11T04:49:21.741Z,76.70
2019-01-11T04:50:21.656Z,85.80
2019-01-11T04:51:21.628Z,76.90
2019-01-11T04:52:21.591Z,79.10
2019-01-11T04:53:21.510Z,78.70
2019-01-11T04:54:21.450Z,74.70
2019-01-11T04:55:21.441Z,74.10
2019-01-11T04:56:21.395Z,74.10
2019-01-11T04:57:21.318Z,73.60
2019-01-11T04:58:21.315Z,70.60
2019-01-11T04:59:21.275Z,64.10
2019-01-11T05:00:21.193Z,66.90
2019-01-11T05:01:21.189Z,63.60
2019-01-11T05:02:21.105Z,66.50
2019-01-11T05:03:21.041Z,66.40
2019-01-11T05:04:21.017Z,62.00
2019-01-11T05:05:20.989Z,64.30
2019-01-11T05:06:20.940Z,65.10
2019-01-11T05:07:20.884Z,60.30
2019-01-11T05:08:20.827Z,58.80
2019-01-11T05:09:20.778Z,60.60
2019-01-11T05:10:20.751Z,60.00
2019-01-11T05:11:20.712Z,63.50
2019-01-11T05:12:20.655Z,61.00
2019-01-11T05:13:20.634Z,59.10
2019-01-11T05:14:20.549Z,61.30
2019-01-11T05:15:20.524Z,57.10
2019-01-11T05:16:20.473Z,61.00
2019-01-11T05:17:20.440Z,60.40
2019-01-11T05:18:20.384Z,62.40
2019-01-11T05:19:20.314Z,62.30
2019-01-11T05:20:20.300Z,61.90
2019-01-11T05:21:20.255Z,58.80
2019-01-11T05:22:20.197Z,66.40
2019-01-11T05:23:20.143Z,62.60
2019-01-11T05:24:20.122Z,66.90
2019-01-11T05:25:20.080Z,62.10
2019-01-11T05:26:20.005Z,68.30
2019-01-11T05:27:19.937Z,70.20
2019-01-11T05:28:19.932Z,66.30
2019-01-11T05:29:19.872Z,63.60
2019-01-11T05:30:19.835Z,69.80
2019-01-11T05:31:19.771Z,71.40
2019-01-11T05:32:19.765Z,72.00
2019-01-11T05:33:19.663Z,73.80
2019-01-11T05:34:19.608Z,68.90
2019-01-11T05:35:19.583Z,71.00
2019-01-11T05:36:19.562Z,76.30
2019-01-11T05:37:19.517Z,70.30
2019-01-11T05:38:19.474Z,74.20
2019-01-11T05:39:19.419Z,70.40
2019-01-11T05:40:19.367Z,71.10
2019-01-11T05:41:19.339Z,69.50
2019-01-11T05:42:19.254Z,70.80
2019-01-11T05:43:19.206Z,68.60
2019-01-11T05:44:19.165Z,75.10
2019-01-11T05:45:19.126Z,71.70
2019-01-11T05:46:19.088Z,76.40
2019-01-11T05:47:19.024Z,74.30
2019-01-11T05:48:18.973Z,82.80
2019-01-11T05:49:18.953Z,73.50
2019-01-11T05:50:24.085Z,73.40
2019-01-11T05:51:18.891Z,77.60
2019-01-11T05:52:18.846Z,74.60
2019-01-11T05:53:18.749Z,76.50
2019-01-11T05:54:18.696Z,76.30
2019-01-11T05:55:18.659Z,65.20
2019-01-11T05:56:18.607Z,44.00
2019-01-11T05:57:18.603Z,53.20
2019-01-11T05:58:28.949Z,44.90
2019-01-11T06:00:58.594Z,35.60
2019-01-11T06:01:58.071Z,35.30
2019-01-11T06:02:57.903Z,34.80
2019-01-11T06:03:57.657Z,34.60
2019-01-11T06:04:58.289Z,32.60
2019-01-11T06:05:57.514Z,32.30
2019-01-11T06:06:57.463Z,33.80
2019-01-11T06:07:57.395Z,33.50
2019-01-11T06:08:57.357Z,36.40
2019-01-11T06:09:57.351Z,35.90
2019-01-11T06:10:57.268Z,35.50
2019-01-11T06:11:57.223Z,35.40
2019-01-11T06:12:57.186Z,35.60
2019-01-11T06:13:57.114Z,34.00
2019-01-11T06:14:57.078Z,34.90
2019-01-11T06:15:57.059Z,35.00
2019-01-11T06:16:56.982Z,33.10
2019-01-11T06:17:56.933Z,32.70
2019-01-11T06:18:56.927Z,31.30
2019-01-11T06:19:56.862Z,30.40
2019-01-11T06:20:56.827Z,29.80
2019-01-11T06:21:56.746Z,29.20
2019-01-11T06:22:56.703Z,31.50
2019-01-11T06:23:56.667Z,31.40
2019-01-11T06:24:56.626Z,33.50
2019-01-11T06:25:56.598Z,37.20
2019-01-11T06:26:56.510Z,39.10
2019-01-11T06:27:56.494Z,42.70
2019-01-11T06:28:56.475Z,43.10
2019-01-11T06:29:56.411Z,47.30
2019-01-11T06:30:56.334Z,52.10
2019-01-11T06:31:56.303Z,56.70
2019-01-11T06:32:56.241Z,59.90
2019-01-11T06:33:56.213Z,65.20
2019-01-11T06:34:56.213Z,66.50
2019-01-11T06:35:56.119Z,70.40
2019-01-11T06:36:56.078Z,71.40
2019-01-11T06:37:56.055Z,75.70
2019-01-11T06:38:55.989Z,81.40
2019-01-11T06:39:55.963Z,73.70
2019-01-11T06:40:55.888Z,73.40
2019-01-11T06:41:55.861Z,77.20
2019-01-11T06:42:55.784Z,77.40
2019-01-11T06:43:55.765Z,82.10
2019-01-11T06:44:55.686Z,87.00
2019-01-11T06:45:55.710Z,79.30
2019-01-11T06:46:55.626Z,87.80
2019-01-11T06:47:55.563Z,104.30
2019-01-11T06:48:55.548Z,109.30
2019-01-11T06:49:55.479Z,87.80
2019-01-11T06:50:55.461Z,113.20
2019-01-11T06:51:55.394Z,114.20
2019-01-11T06:52:55.511Z,107.00
2019-01-11T06:53:55.280Z,126.20
2019-01-11T06:54:55.281Z,130.80
2019-01-11T06:55:55.264Z,158.10
2019-01-11T06:56:55.164Z,145.20
2019-01-11T06:57:55.107Z,138.70
2019-01-11T06:58:55.052Z,146.80
2019-01-11T06:59:55.016Z,127.10
2019-01-11T07:00:55.009Z,152.00
2019-01-11T07:01:54.947Z,159.30
2019-01-11T07:02:54.922Z,164.00
2019-01-11T07:03:54.847Z,179.50
2019-01-11T07:04:54.775Z,159.50
2019-01-11T07:05:54.742Z,143.80
2019-01-11T07:06:54.691Z,162.80
2019-01-11T07:07:54.693Z,154.80
2019-01-11T07:08:54.629Z,179.50
2019-01-11T07:09:54.585Z,160.80
2019-01-11T07:10:54.525Z,147.70
2019-01-11T07:11:54.466Z,156.50
2019-01-11T07:12:54.424Z,170.30
2019-01-11T07:13:54.418Z,179.30
2019-01-11T07:14:54.336Z,207.90
2019-01-11T07:15:54.265Z,151.90
2019-01-11T07:16:54.242Z,154.10
2019-01-11T07:17:54.199Z,154.50
2019-01-11T07:18:54.790Z,163.50
2019-01-11T07:19:54.120Z,151.70
2019-01-11T07:20:54.073Z,199.60
2019-01-11T07:21:54.008Z,156.00
2019-01-11T07:22:53.989Z,210.50
2019-01-11T07:23:53.908Z,177.70
2019-01-11T07:24:53.868Z,207.70
2019-01-11T07:25:53.812Z,169.30
2019-01-11T07:26:53.798Z,188.20
2019-01-11T07:27:53.767Z,236.00
2019-01-11T07:28:53.695Z,174.10
2019-01-11T07:29:53.625Z,195.50
2019-01-11T07:30:53.619Z,223.80
2019-01-11T07:31:53.574Z,167.30
2019-01-11T07:32:53.546Z,166.90
2019-01-11T07:33:53.467Z,211.00
2019-01-11T07:34:53.409Z,162.50
2019-01-11T07:35:53.377Z,173.40
2019-01-11T07:36:53.394Z,184.30
2019-01-11T07:37:53.291Z,245.30
2019-01-11T07:38:53.273Z,249.90
2019-01-11T07:39:53.187Z,213.10
2019-01-11T07:40:53.144Z,238.30
2019-01-11T07:41:53.112Z,185.30
2019-01-11T07:42:53.090Z,172.40
2019-01-11T07:43:52.985Z,178.30
2019-01-11T07:44:52.981Z,184.90
2019-01-11T07:45:52.920Z,165.10
2019-01-11T07:46:52.851Z,178.70
2019-01-11T07:47:52.816Z,146.50
2019-01-11T07:48:52.788Z,153.70
2019-01-11T07:49:52.708Z,162.10
2019-01-11T07:50:52.680Z,143.50
2019-01-11T07:51:52.623Z,159.50
2019-01-11T07:52:52.672Z,138.20
2019-01-11T07:53:52.547Z,141.00
2019-01-11T07:54:52.509Z,142.10
2019-01-11T07:55:52.452Z,128.00
2019-01-11T07:56:52.396Z,137.10
2019-01-11T07:57:52.392Z,130.50
2019-01-11T07:58:52.343Z,141.30
2019-01-11T07:59:52.281Z,124.20
2019-01-11T08:00:52.228Z,129.00
2019-01-11T08:01:52.186Z,126.20
2019-01-11T08:02:52.147Z,125.10
2019-01-11T08:03:52.119Z,129.90
2019-01-11T08:04:52.040Z,139.10
2019-01-11T08:05:52.071Z,132.80
2019-01-11T08:06:51.967Z,128.50
2019-01-11T08:07:51.897Z,128.70
2019-01-11T08:08:51.847Z,121.90
2019-01-11T08:09:51.812Z,142.60
2019-01-11T08:10:51.799Z,143.90
2019-01-11T08:12:01.170Z,134.70
2019-01-11T08:13:01.086Z,142.30
2019-01-11T08:13:51.644Z,143.30
2019-01-11T08:14:51.601Z,144.00
2019-01-11T08:15:51.554Z,136.60
2019-01-11T08:16:51.523Z,143.40
2019-01-11T08:17:51.448Z,143.40
2019-01-11T08:18:51.486Z,116.10
2019-01-11T08:19:51.397Z,111.60
2019-01-11T08:20:56.251Z,113.50
2019-01-11T08:21:51.324Z,104.70
2019-01-11T08:22:51.249Z,103.50
2019-01-11T08:23:51.233Z,100.10
2019-01-11T08:24:51.124Z,93.30
2019-01-11T08:25:51.078Z,91.20
2019-01-11T08:26:51.058Z,93.30
2019-01-11T08:27:51.059Z,92.40
2019-01-11T08:28:50.973Z,100.00
2019-01-11T08:29:50.899Z,97.10
2019-01-11T08:30:50.856Z,88.60
2019-01-11T08:31:50.857Z,93.00
2019-01-11T08:32:50.780Z,98.10
2019-01-11T08:33:50.758Z,87.50
2019-01-11T08:34:50.662Z,87.10
2019-01-11T08:35:50.625Z,91.00
2019-01-11T08:36:50.571Z,85.50
2019-01-11T08:37:50.548Z,73.40
2019-01-11T08:38:50.495Z,72.70
2019-01-11T08:39:50.479Z,73.70
2019-01-11T08:40:50.397Z,73.40
2019-01-11T08:41:50.348Z,73.50
2019-01-11T08:42:50.310Z,73.10
2019-01-11T08:43:50.254Z,84.10
2019-01-11T08:44:50.201Z,92.60
2019-01-11T08:45:50.194Z,99.00
2019-01-11T08:46:50.113Z,97.40
2019-01-11T08:47:50.117Z,104.50
2019-01-11T08:48:50.046Z,101.50
2019-01-11T08:49:49.991Z,101.90
2019-01-11T08:50:49.983Z,104.60
2019-01-11T08:51:49.887Z,111.80
2019-01-11T08:52:49.858Z,109.90
2019-01-11T08:53:49.802Z,107.50
2019-01-11T08:54:49.762Z,116.00
2019-01-11T08:55:49.718Z,117.00
2019-01-11T08:56:49.701Z,108.80
2019-01-11T08:57:49.647Z,105.20
2019-01-11T08:58:50.680Z,107.10
2019-01-11T08:59:49.551Z,115.00
2019-01-11T09:00:49.505Z,107.50
2019-01-11T09:01:49.459Z,114.30
2019-01-11T09:02:49.442Z,116.70
2019-01-11T09:03:49.364Z,141.10
2019-01-11T09:04:49.338Z,151.00
2019-01-11T09:05:49.284Z,123.00
2019-01-11T09:06:49.218Z,127.50
2019-01-11T09:07:49.177Z,124.20
2019-01-11T09:08:49.221Z,114.10
2019-01-11T09:09:49.092Z,118.50
2019-01-11T09:10:49.040Z,114.40
2019-01-11T09:11:49.029Z,127.90
2019-01-11T09:12:48.978Z,123.50
2019-01-11T09:13:48.900Z,136.30
2019-01-11T09:14:48.879Z,118.70
2019-01-11T09:15:49.157Z,116.80
2019-01-11T09:16:48.805Z,125.80
2019-01-11T09:17:48.721Z,125.90
2019-01-11T09:18:48.899Z,131.10
2019-01-11T09:19:48.667Z,118.80
2019-01-11T09:20:48.594Z,111.30
2019-01-11T09:21:48.550Z,106.70
2019-01-11T09:22:48.482Z,97.30
2019-01-11T09:23:48.463Z,102.50
2019-01-11T09:24:48.408Z,93.90
2019-01-11T09:25:48.415Z,87.90
2019-01-11T09:26:48.326Z,84.30
2019-01-11T09:27:48.262Z,92.60
2019-01-11T09:28:48.218Z,93.10
2019-01-11T09:29:48.179Z,88.40
2019-01-11T09:30:48.132Z,88.80
2019-01-11T09:31:48.116Z,85.90
2019-01-11T09:32:48.042Z,85.50
2019-01-11T09:33:47.993Z,82.70
2019-01-11T09:34:47.938Z,81.90
2019-01-11T09:35:47.919Z,87.50
2019-01-11T09:36:47.864Z,79.60
2019-01-11T09:37:47.847Z,78.40
2019-01-11T09:38:47.772Z,80.00
2019-01-11T09:39:47.736Z,84.60
2019-01-11T09:40:47.698Z,81.20
2019-01-11T09:41:47.623Z,79.30
2019-01-11T09:42:47.619Z,83.90
2019-01-11T09:43:47.578Z,81.20
2019-01-11T09:44:47.512Z,77.10
2019-01-11T09:45:47.505Z,80.00
2019-01-11T09:46:47.431Z,81.20
2019-01-11T09:47:47.360Z,80.20
2019-01-11T09:48:47.335Z,82.40
2019-01-11T09:49:47.287Z,87.50
2019-01-11T09:50:47.260Z,78.00
2019-01-11T09:51:47.197Z,83.00
2019-01-11T09:52:47.172Z,84.30
2019-01-11T09:53:47.140Z,85.20
2019-01-11T09:54:47.085Z,87.40
2019-01-11T09:55:47.022Z,78.20
2019-01-11T09:56:46.983Z,88.10
2019-01-11T09:57:46.911Z,91.40
2019-01-11T09:58:46.896Z,95.00
2019-01-11T09:59:46.858Z,101.00
2019-01-11T10:00:46.788Z,94.30
2019-01-11T10:01:46.734Z,99.40
2019-01-11T10:02:46.692Z,94.40
2019-01-11T10:03:46.674Z,103.10
2019-01-11T10:04:46.608Z,104.60
2019-01-11T10:05:46.583Z,95.70
2019-01-11T10:06:46.517Z,96.10
2019-01-11T10:07:46.500Z,106.60
2019-01-11T10:08:46.423Z,96.80
2019-01-11T10:09:46.386Z,95.80
2019-01-11T10:10:46.366Z,101.00
2019-01-11T10:11:46.301Z,101.70
2019-01-11T10:12:46.240Z,105.50
2019-01-11T10:13:46.240Z,105.10
2019-01-11T10:14:46.150Z,122.00
2019-01-11T10:15:46.120Z,105.20
2019-01-11T10:16:46.092Z,110.40
2019-01-11T10:17:46.022Z,110.00
2019-01-11T10:18:45.987Z,104.30
2019-01-11T10:19:45.956Z,119.50
2019-01-11T10:20:45.874Z,122.80
2019-01-11T10:21:45.848Z,113.50
2019-01-11T10:22:45.834Z,146.30
2019-01-11T10:23:45.782Z,115.90
2019-01-11T10:24:45.749Z,140.50
2019-01-11T10:25:45.666Z,110.20
2019-01-11T10:26:45.621Z,122.20
2019-01-11T10:27:45.575Z,121.80
2019-01-11T10:28:45.550Z,128.70
2019-01-11T10:29:45.495Z,118.30
2019-01-11T10:30:45.454Z,104.70
2019-01-11T10:31:45.400Z,136.60
2019-01-11T10:32:45.369Z,121.20
2019-01-11T10:33:45.332Z,122.10
2019-01-11T10:34:45.268Z,111.60
2019-01-11T10:35:45.237Z,113.70
2019-01-11T10:36:45.164Z,153.80
2019-01-11T10:37:45.147Z,116.00
2019-01-11T10:38:45.135Z,118.80
2019-01-11T10:39:45.043Z,117.40
2019-01-11T10:40:44.986Z,113.90
2019-01-11T10:41:44.979Z,117.50
2019-01-11T10:42:44.915Z,128.10
2019-01-11T10:43:44.900Z,126.90
2019-01-11T10:44:44.848Z,135.30
2019-01-11T10:45:44.798Z,124.30
2019-01-11T10:46:49.028Z,120.20
2019-01-11T10:47:44.723Z,116.10
2019-01-11T10:48:44.645Z,119.80
2019-01-11T10:49:44.620Z,116.80
2019-01-11T10:50:44.603Z,126.80
2019-01-11T10:51:44.510Z,116.90
2019-01-11T10:52:44.477Z,108.80
2019-01-11T10:53:44.425Z,111.00
2019-01-11T10:54:44.368Z,115.80
2019-01-11T10:55:44.338Z,116.40
2019-01-11T10:56:44.330Z,109.30
2019-01-11T10:57:44.257Z,115.20
2019-01-11T10:58:44.206Z,112.00
2019-01-11T10:59:44.153Z,114.90
2019-01-11T11:00:44.165Z,111.10
2019-01-11T11:01:44.059Z,106.30
2019-01-11T11:02:44.034Z,98.50
2019-01-11T11:03:43.987Z,101.60
2019-01-11T11:04:43.938Z,97.70
2019-01-11T11:05:43.908Z,116.50
2019-01-11T11:06:43.849Z,118.00
2019-01-11T11:07:43.847Z,128.80
2019-01-11T11:08:43.747Z,123.50
2019-01-11T11:09:43.721Z,134.40
2019-01-11T11:10:43.714Z,120.00
2019-01-11T11:11:43.623Z,125.90
2019-01-11T11:12:43.589Z,127.30
2019-01-11T11:13:43.543Z,140.80
2019-01-11T11:14:43.513Z,135.20
2019-01-11T11:15:43.464Z,124.00
2019-01-11T11:16:43.437Z,138.60
2019-01-11T11:17:43.383Z,135.40
2019-01-11T11:18:43.358Z,128.40
2019-01-11T11:19:43.279Z,131.70
2019-01-11T11:20:43.253Z,148.80
2019-01-11T11:21:43.177Z,158.70
2019-01-11T11:22:43.163Z,139.00
2019-01-11T11:23:43.103Z,147.20
2019-01-11T11:24:43.073Z,141.50
2019-01-11T11:25:43.018Z,143.80
2019-01-11T11:26:43.030Z,160.70
2019-01-11T11:27:42.923Z,156.00
2019-01-11T11:28:42.882Z,145.50
2019-01-11T11:29:42.834Z,154.40
2019-01-11T11:30:42.798Z,166.00
2019-01-11T11:31:42.734Z,158.80
2019-01-11T11:32:42.722Z,148.00
2019-01-11T11:33:42.650Z,166.20
2019-01-11T11:34:42.620Z,147.80
2019-01-11T11:35:42.584Z,156.10
2019-01-11T11:36:42.545Z,153.70
2019-01-11T11:37:42.521Z,189.40
2019-01-11T11:38:42.465Z,173.30
2019-01-11T11:39:42.392Z,167.40
2019-01-11T11:40:42.354Z,193.90
2019-01-11T11:41:42.310Z,165.70
2019-01-11T11:42:42.286Z,173.40
2019-01-11T11:43:42.265Z,174.90
2019-01-11T11:44:42.171Z,153.90
2019-01-11T11:45:42.143Z,160.90
2019-01-11T11:46:42.112Z,163.20
2019-01-11T11:47:42.049Z,190.20
2019-01-11T11:48:42.019Z,183.30
2019-01-11T11:49:41.961Z,174.10
2019-01-11T11:50:41.921Z,170.50
2019-01-11T11:51:41.891Z,192.50
2019-01-11T11:52:41.835Z,175.50
2019-01-11T11:53:41.791Z,156.00
2019-01-11T11:54:41.741Z,167.90
2019-01-11T11:55:41.689Z,186.10
2019-01-11T11:56:41.666Z,170.10
2019-01-11T11:57:41.635Z,207.30
2019-01-11T11:58:41.569Z,196.60
2019-01-11T11:59:41.531Z,173.40
2019-01-11T12:00:41.490Z,165.00
2019-01-11T12:01:41.461Z,178.40
2019-01-11T12:02:41.388Z,173.50
2019-01-11T12:03:41.343Z,171.70
2019-01-11T12:04:41.294Z,195.40
2019-01-11T12:05:41.247Z,191.50
2019-01-11T12:06:41.237Z,187.30
2019-01-11T12:07:41.185Z,174.60
2019-01-11T12:08:41.118Z,165.70
2019-01-11T12:09:41.085Z,189.30
2019-01-11T12:10:41.056Z,185.70
2019-01-11T12:11:40.995Z,164.60
2019-01-11T12:12:40.976Z,179.20
2019-01-11T12:13:41.041Z,169.30
2019-01-11T12:14:40.902Z,175.80
2019-01-11T12:15:40.854Z,155.80
2019-01-11T12:16:40.766Z,178.80
2019-01-11T12:17:40.749Z,175.70
2019-01-11T12:18:40.764Z,157.30
2019-01-11T12:19:40.646Z,165.90
2019-01-11T12:20:40.609Z,178.30
2019-01-11T12:21:40.561Z,176.80
2019-01-11T12:22:40.515Z,163.80
2019-01-11T12:23:40.488Z,168.50
2019-01-11T12:24:40.468Z,150.70
2019-01-11T12:25:40.389Z,185.40
2019-01-11T12:26:40.330Z,179.00
2019-01-11T12:27:40.306Z,165.90
2019-01-11T12:28:40.260Z,151.70
2019-01-11T12:29:40.214Z,150.80
2019-01-11T12:30:40.210Z,167.70
2019-01-11T12:31:40.149Z,144.70
2019-01-11T12:32:40.091Z,144.40
2019-01-11T12:33:40.046Z,142.40
2019-01-11T12:34:49.501Z,125.10
2019-01-11T12:35:48.896Z,124.00
2019-01-11T12:36:39.921Z,120.60
2019-01-11T12:37:39.845Z,109.50
2019-01-11T12:38:39.817Z,108.20
2019-01-11T12:39:39.752Z,106.10
2019-01-11T12:40:39.746Z,111.10
2019-01-11T12:41:39.708Z,111.70
2019-01-11T12:42:39.636Z,103.10
2019-01-11T12:43:39.603Z,110.10
2019-01-11T12:44:39.532Z,105.10
2019-01-11T12:45:39.528Z,101.90
2019-01-11T12:46:39.455Z,106.60
2019-01-11T12:47:39.421Z,102.80
2019-01-11T12:48:39.385Z,115.30
2019-01-11T12:49:39.334Z,108.00
2019-01-11T12:50:39.294Z,116.80
2019-01-11T12:51:39.280Z,125.30
2019-01-11T12:52:39.202Z,131.00
2019-01-11T12:53:39.157Z,123.20
2019-01-11T12:54:39.105Z,137.60
2019-01-11T12:55:39.063Z,127.00
2019-01-11T12:56:39.038Z,119.90
2019-01-11T12:57:39.009Z,124.30
2019-01-11T12:58:38.933Z,123.10
2019-01-11T12:59:38.880Z,134.20
2019-01-11T13:00:38.854Z,138.70
2019-01-11T13:01:38.894Z,131.60
2019-01-11T13:02:38.752Z,126.90
2019-01-11T13:03:38.722Z,133.60
2019-01-11T13:04:38.690Z,119.30
2019-01-11T13:05:38.613Z,128.60
2019-01-11T13:06:38.574Z,130.60
2019-01-11T13:07:38.575Z,122.70
2019-01-11T13:08:38.499Z,137.40
2019-01-11T13:09:38.466Z,145.20
2019-01-11T13:10:38.425Z,129.80
2019-01-11T13:11:38.406Z,148.90